Dublin, Indiana
Current Conditions -  °F | °C
As of 11:53 AM on Saturday 25 Oct 2014 (Local Time) from KMIE Reporting Station
Clear Clear  
Wind Chill: 65°   Ceiling: Unl
Heat Index: 65°   Visibility: 10mi
Dew Point: 55°   Wind: 10mph
Humidity: 70%   Direction: 250°WSW
Pressure: 29.94"   Gusts: NA
Location:  39.81°N, 85.21°W
Report Text: KMIE 251553Z 25009KT 10SM CLR 18/13 A2994 RMK AO2 SLP135 T01830128
Loading
Personal Weather Stations






























Interactive Weather Map
Tropical Storm Tracking
New forecast layout! Learn more

10-Day Weather Forecast

Advertisements
Track Severe Weather on mobile